createdAt,value
2019-02-19T00:01:35.311Z,101539.86
2019-02-19T00:04:04.704Z,101544.65
2019-02-19T00:06:34.052Z,101546.63
2019-02-19T00:09:05.067Z,101536.72
2019-02-19T00:11:34.070Z,101546.28
2019-02-19T00:14:03.444Z,101553.32
2019-02-19T00:16:32.894Z,101552.75
2019-02-19T00:19:01.906Z,101560.42
2019-02-19T00:21:30.936Z,101561.80
2019-02-19T00:24:00.339Z,101560.13
2019-02-19T00:26:29.428Z,101557.89
2019-02-19T00:28:58.460Z,101553.66
2019-02-19T00:31:27.834Z,101559.58
2019-02-19T00:33:58.550Z,101566.16
2019-02-19T00:36:27.556Z,101561.97
2019-02-19T00:38:56.582Z,101558.70
2019-02-19T00:41:25.606Z,101561.54
2019-02-19T00:43:55.508Z,101553.09
2019-02-19T00:46:24.514Z,101553.84
2019-02-19T00:48:53.861Z,101548.38
2019-02-19T00:51:23.024Z,101550.27
2019-02-19T00:53:52.124Z,101549.36
2019-02-19T00:56:21.197Z,101558.91
2019-02-19T00:58:50.281Z,101560.67
2019-02-19T01:01:19.384Z,101564.41
2019-02-19T01:03:48.409Z,101560.11
2019-02-19T01:06:17.724Z,101564.48
2019-02-19T01:08:46.752Z,101566.39
2019-02-19T01:11:16.127Z,101560.63
2019-02-19T01:13:45.328Z,101563.41
2019-02-19T01:16:14.376Z,101562.51
2019-02-19T01:18:43.882Z,101568.82
2019-02-19T01:21:13.276Z,101571.09
2019-02-19T01:23:42.944Z,101572.48
2019-02-19T01:26:11.937Z,101576.50
2019-02-19T01:28:40.946Z,101574.25
2019-02-19T01:31:10.772Z,101578.67
2019-02-19T01:33:40.621Z,101586.41
2019-02-19T01:36:09.651Z,101589.48
2019-02-19T01:38:38.664Z,101581.66
2019-02-19T01:41:08.034Z,101585.80
2019-02-19T01:43:37.161Z,101590.45
2019-02-19T01:46:06.484Z,101577.55
2019-02-19T01:48:35.498Z,101576.66
2019-02-19T01:51:04.722Z,101580.20
2019-02-19T01:53:33.756Z,101582.17
2019-02-19T01:56:03.591Z,101585.86
2019-02-19T01:58:32.641Z,101583.14
2019-02-19T02:01:02.386Z,101574.12
2019-02-19T02:03:31.845Z,101571.33
2019-02-19T02:06:01.460Z,101566.81
2019-02-19T02:08:30.770Z,101563.88
2019-02-19T02:10:59.765Z,101561.64
2019-02-19T02:13:28.868Z,101565.55
2019-02-19T02:15:57.997Z,101565.21
2019-02-19T02:18:27.255Z,101563.17
2019-02-19T02:20:56.661Z,101555.50
2019-02-19T02:23:26.062Z,101550.26
2019-02-19T02:25:55.280Z,101548.31
2019-02-19T02:28:24.666Z,101543.27
2019-02-19T02:30:53.844Z,101550.16
2019-02-19T02:33:23.266Z,101544.48
2019-02-19T02:35:52.690Z,101552.56
2019-02-19T02:38:21.710Z,101556.49
2019-02-19T02:40:51.111Z,101551.78
2019-02-19T02:43:20.460Z,101558.89
2019-02-19T02:45:53.302Z,101560.51
2019-02-19T02:48:20.311Z,101554.89
2019-02-19T02:50:49.724Z,101555.79
2019-02-19T02:53:18.788Z,101557.84
2019-02-19T02:55:48.061Z,101548.82
2019-02-19T02:58:17.122Z,101563.41
2019-02-19T03:00:46.149Z,101565.91
2019-02-19T03:03:15.221Z,101573.38
2019-02-19T03:06:00.598Z,101571.94
2019-02-19T03:08:29.606Z,101581.52
2019-02-19T03:10:58.599Z,101576.13
2019-02-19T03:13:27.750Z,101581.79
2019-02-19T03:16:02.481Z,101586.55
2019-02-19T03:18:27.667Z,101584.84
2019-02-19T03:20:56.963Z,101586.09
2019-02-19T03:23:26.007Z,101583.10
2019-02-19T03:25:55.052Z,101590.14
2019-02-19T03:28:24.100Z,101597.14
2019-02-19T03:30:53.125Z,101595.47
2019-02-19T03:33:22.365Z,101592.98
2019-02-19T03:35:51.684Z,101603.48
2019-02-19T03:38:20.930Z,101601.50
2019-02-19T03:40:50.217Z,101594.23
2019-02-19T03:43:19.718Z,101599.19
2019-02-19T03:45:49.216Z,101595.58
2019-02-19T03:48:18.974Z,101593.99
2019-02-19T03:50:48.387Z,101597.75
2019-02-19T03:53:17.870Z,101594.75
2019-02-19T03:55:47.306Z,101599.33
2019-02-19T03:58:16.708Z,101596.41
2019-02-19T04:00:45.958Z,101604.58
2019-02-19T04:03:14.967Z,101602.16
2019-02-19T04:05:44.270Z,101610.70
2019-02-19T04:08:13.316Z,101615.27
2019-02-19T04:10:42.345Z,101607.67
2019-02-19T04:13:11.762Z,101609.13
2019-02-19T04:15:41.566Z,101605.72
2019-02-19T04:18:10.878Z,101614.15
2019-02-19T04:20:39.969Z,101611.58
2019-02-19T04:23:09.682Z,101614.00
2019-02-19T04:25:38.980Z,101616.97
2019-02-19T04:28:08.503Z,101624.43
2019-02-19T04:30:38.013Z,101618.33
2019-02-19T04:33:07.310Z,101611.58
2019-02-19T04:35:36.715Z,101613.53
2019-02-19T04:38:05.997Z,101618.63
2019-02-19T04:40:36.612Z,101620.96
2019-02-19T04:43:05.620Z,101629.16
2019-02-19T04:45:34.698Z,101634.31
2019-02-19T04:48:03.747Z,101631.65
2019-02-19T04:50:32.729Z,101636.47
2019-02-19T04:53:02.083Z,101635.38
2019-02-19T04:55:31.461Z,101638.56
2019-02-19T04:58:00.570Z,101642.16
2019-02-19T05:00:29.883Z,101641.27
2019-02-19T05:02:59.229Z,101640.22
2019-02-19T05:05:28.549Z,101643.41
2019-02-19T05:07:57.879Z,101643.89
2019-02-19T05:10:27.224Z,101645.27
2019-02-19T05:12:56.438Z,101651.88
2019-02-19T05:15:25.689Z,101646.70
2019-02-19T05:17:54.818Z,101650.69
2019-02-19T05:20:24.264Z,101644.17
2019-02-19T05:22:53.661Z,101651.77
2019-02-19T05:25:23.078Z,101658.42
2019-02-19T05:27:52.099Z,101657.64
2019-02-19T05:30:21.426Z,101664.74
2019-02-19T05:32:50.778Z,101665.27
2019-02-19T05:35:19.830Z,101661.88
2019-02-19T05:37:48.865Z,101658.87
2019-02-19T05:40:18.222Z,101672.77
2019-02-19T05:42:47.304Z,101677.59
2019-02-19T05:45:16.305Z,101680.39
2019-02-19T05:47:45.677Z,101675.91
2019-02-19T05:50:15.565Z,101676.38
2019-02-19T05:52:44.581Z,101677.84
2019-02-19T05:55:13.611Z,101686.41
2019-02-19T05:57:42.621Z,101684.75
2019-02-19T06:00:12.631Z,101682.92
2019-02-19T06:02:41.707Z,101679.28
2019-02-19T06:05:10.904Z,101680.02
2019-02-19T06:07:39.963Z,101680.27
2019-02-19T06:10:10.767Z,101690.89
2019-02-19T06:12:40.118Z,101695.72
2019-02-19T06:15:09.666Z,101698.52
2019-02-19T06:17:39.002Z,101702.48
2019-02-19T06:20:08.548Z,101697.72
2019-02-19T06:22:37.563Z,101693.08
2019-02-19T06:25:07.922Z,101701.44
2019-02-19T06:27:36.996Z,101702.88
2019-02-19T06:30:08.815Z,101706.62
2019-02-19T06:32:37.921Z,101706.97
2019-02-19T06:35:07.535Z,101715.56
2019-02-19T06:37:36.795Z,101713.98
2019-02-19T06:40:06.831Z,101719.23
2019-02-19T06:42:35.885Z,101721.96
2019-02-19T06:45:05.303Z,101723.52
2019-02-19T06:47:34.293Z,101723.40
2019-02-19T06:50:03.771Z,101731.77
2019-02-19T06:52:33.177Z,101731.86
2019-02-19T06:55:02.277Z,101741.34
2019-02-19T06:57:31.291Z,101739.69
2019-02-19T07:00:00.343Z,101741.25
2019-02-19T07:02:54.643Z,101739.58
2019-02-19T07:05:25.044Z,101748.15
2019-02-19T07:07:54.115Z,101748.78
2019-02-19T07:10:23.146Z,101750.48
2019-02-19T07:12:52.187Z,101750.83
2019-02-19T07:15:21.240Z,101750.05
2019-02-19T07:17:50.365Z,101757.92
2019-02-19T07:20:19.407Z,101758.81
2019-02-19T07:22:48.854Z,101762.12
2019-02-19T07:25:18.268Z,101762.50
2019-02-19T07:27:47.317Z,101769.98
2019-02-19T07:30:16.339Z,101767.20
2019-02-19T07:32:45.627Z,101770.47
2019-02-19T07:35:14.985Z,101769.37
2019-02-19T07:37:44.295Z,101775.80
2019-02-19T07:40:13.342Z,101777.02
2019-02-19T07:42:42.757Z,101781.95
2019-02-19T07:45:11.869Z,101780.50
2019-02-19T07:47:40.884Z,101782.70
2019-02-19T07:50:10.213Z,101787.53
2019-02-19T07:52:39.570Z,101794.16
2019-02-19T07:55:09.107Z,101796.36
2019-02-19T07:57:38.125Z,101796.62
2019-02-19T08:00:08.172Z,101792.59
2019-02-19T08:02:37.411Z,101803.62
2019-02-19T08:05:06.814Z,101802.89
2019-02-19T08:07:35.827Z,101801.55
2019-02-19T08:10:05.276Z,101802.85
2019-02-19T08:12:34.272Z,101812.91
2019-02-19T08:15:03.301Z,101801.36
2019-02-19T08:17:33.551Z,101816.40
2019-02-19T08:20:02.862Z,101821.52
2019-02-19T08:22:32.261Z,101827.16
2019-02-19T08:25:01.313Z,101829.07
2019-02-19T08:27:30.325Z,101823.72
2019-02-19T08:29:59.315Z,101827.28
2019-02-19T08:32:28.681Z,101830.07
2019-02-19T08:34:58.046Z,101831.72
2019-02-19T08:37:27.448Z,101827.25
2019-02-19T08:39:56.776Z,101829.98
2019-02-19T08:42:26.161Z,101832.20
2019-02-19T08:44:55.169Z,101835.48
2019-02-19T08:47:24.173Z,101833.27
2019-02-19T08:49:53.187Z,101834.41
2019-02-19T08:52:22.301Z,101838.70
2019-02-19T08:54:51.631Z,101835.17
2019-02-19T08:57:20.668Z,101844.61
2019-02-19T08:59:49.686Z,101838.88
2019-02-19T09:02:19.008Z,101833.53
2019-02-19T09:04:48.162Z,101838.24
2019-02-19T09:07:17.193Z,101847.50
2019-02-19T09:09:46.901Z,101848.14
2019-02-19T09:12:15.969Z,101847.14
2019-02-19T09:14:45.053Z,101858.77
2019-02-19T09:17:14.084Z,101857.15
2019-02-19T09:19:43.097Z,101849.25
2019-02-19T09:22:12.442Z,101859.72
2019-02-19T09:24:41.463Z,101861.56
2019-02-19T09:27:10.597Z,101866.78
2019-02-19T09:29:39.658Z,101863.99
2019-02-19T09:32:08.719Z,101866.55
2019-02-19T09:34:37.742Z,101863.73
2019-02-19T09:37:08.015Z,101870.75
2019-02-19T09:39:37.319Z,101864.22
2019-02-19T09:42:06.300Z,101870.52
2019-02-19T09:44:35.757Z,101871.98
2019-02-19T09:47:04.835Z,101876.27
2019-02-19T09:49:33.855Z,101875.27
2019-02-19T09:52:02.880Z,101874.28
2019-02-19T09:54:31.920Z,101877.40
2019-02-19T09:57:01.051Z,101872.79
2019-02-19T09:59:30.168Z,101877.05
2019-02-19T10:01:59.384Z,101875.06
2019-02-19T10:04:28.461Z,101879.22
2019-02-19T10:06:57.609Z,101879.80
2019-02-19T10:09:26.711Z,101874.62
2019-02-19T10:11:55.765Z,101863.66
2019-02-19T10:14:24.821Z,101881.77
2019-02-19T10:16:53.901Z,101880.02
2019-02-19T10:19:22.979Z,101891.08
2019-02-19T10:21:52.131Z,101893.41
2019-02-19T10:24:21.144Z,101892.48
2019-02-19T10:26:50.497Z,101898.86
2019-02-19T10:29:19.541Z,101894.73
2019-02-19T10:31:48.571Z,101898.22
2019-02-19T10:34:17.618Z,101897.44
2019-02-19T10:36:46.637Z,101891.14
2019-02-19T10:39:15.639Z,101893.09
2019-02-19T10:41:44.691Z,101896.59
2019-02-19T10:44:13.726Z,101898.25
2019-02-19T10:46:42.756Z,101892.03
2019-02-19T10:49:11.771Z,101891.23
2019-02-19T10:51:40.991Z,101889.49
2019-02-19T10:54:10.189Z,101905.14
2019-02-19T10:56:39.229Z,101900.06
2019-02-19T10:59:08.551Z,101901.48
2019-02-19T11:01:37.569Z,101907.02
2019-02-19T11:04:06.629Z,101905.76
2019-02-19T11:06:35.639Z,101909.89
2019-02-19T11:09:05.903Z,101902.91
2019-02-19T11:11:35.000Z,101916.71
2019-02-19T11:14:04.070Z,101917.00
2019-02-19T11:16:33.090Z,101916.81
2019-02-19T11:19:02.168Z,101907.44
2019-02-19T11:21:31.469Z,101902.20
2019-02-19T11:24:00.479Z,101900.98
2019-02-19T11:26:29.833Z,101899.10
2019-02-19T11:28:58.855Z,101902.41
2019-02-19T11:31:27.868Z,101901.00
2019-02-19T11:33:57.276Z,101902.66
2019-02-19T11:36:26.346Z,101908.31
2019-02-19T11:38:55.340Z,101894.30
2019-02-19T11:41:24.403Z,101895.87
2019-02-19T11:43:53.399Z,101907.48
2019-02-19T11:46:22.438Z,101902.25
2019-02-19T11:48:51.463Z,101905.95
2019-02-19T11:51:20.551Z,101896.73
2019-02-19T11:53:49.554Z,101905.64
2019-02-19T11:56:18.583Z,101888.02
2019-02-19T11:58:47.958Z,101888.60
2019-02-19T12:01:17.783Z,101893.69
2019-02-19T12:03:46.824Z,101895.24
2019-02-19T12:06:15.906Z,101898.89
2019-02-19T12:08:45.215Z,101887.81
2019-02-19T12:11:14.530Z,101896.82
2019-02-19T12:13:43.566Z,101893.82
2019-02-19T12:16:12.885Z,101893.49
2019-02-19T12:18:46.277Z,101896.11
2019-02-19T12:21:12.677Z,101890.55
2019-02-19T12:23:41.976Z,101888.61
2019-02-19T12:26:11.017Z,101883.12
2019-02-19T12:28:40.024Z,101886.09
2019-02-19T12:31:09.069Z,101879.66
2019-02-19T12:33:38.088Z,101887.69
2019-02-19T12:36:07.412Z,101874.11
2019-02-19T12:38:36.488Z,101875.31
2019-02-19T12:41:05.616Z,101884.76
2019-02-19T12:43:34.889Z,101878.42
2019-02-19T12:46:03.926Z,101887.62
2019-02-19T12:48:33.020Z,101884.20
2019-02-19T12:51:02.309Z,101877.87
2019-02-19T12:53:31.365Z,101878.02
2019-02-19T12:56:00.375Z,101872.45
2019-02-19T12:58:29.724Z,101871.20
2019-02-19T13:00:59.308Z,101877.80
2019-02-19T13:03:28.348Z,101867.57
2019-02-19T13:05:57.407Z,101873.59
2019-02-19T13:08:26.718Z,101873.56
2019-02-19T13:10:55.737Z,101860.87
2019-02-19T13:13:24.736Z,101862.56
2019-02-19T13:15:53.747Z,101853.52
2019-02-19T13:18:23.040Z,101858.56
2019-02-19T13:20:52.213Z,101854.28
2019-02-19T13:23:21.234Z,101851.37
2019-02-19T13:25:50.320Z,101856.98
2019-02-19T13:28:19.625Z,101851.11
2019-02-19T13:30:50.824Z,101856.22
2019-02-19T13:33:19.831Z,101859.77
2019-02-19T13:35:50.676Z,101848.30
2019-02-19T13:38:19.803Z,101851.16
2019-02-19T13:40:49.076Z,101862.12
2019-02-19T13:43:18.367Z,101854.61
2019-02-19T13:45:47.712Z,101849.53
2019-02-19T13:48:16.757Z,101854.27
2019-02-19T13:50:46.061Z,101847.09
2019-02-19T13:53:34.080Z,101840.81
2019-02-19T13:56:04.132Z,101844.05
2019-02-19T13:58:33.152Z,101842.39
2019-02-19T14:01:02.309Z,101855.59
2019-02-19T14:03:31.596Z,101861.08
2019-02-19T14:06:00.645Z,101857.22
2019-02-19T14:08:29.697Z,101854.41
2019-02-19T14:10:58.968Z,101861.94
2019-02-19T14:13:27.975Z,101859.38
2019-02-19T14:16:15.990Z,101863.35
2019-02-19T14:18:48.488Z,101866.50
2019-02-19T14:21:54.464Z,101864.52
2019-02-19T14:24:39.406Z,101857.60
2019-02-19T14:27:22.302Z,101863.44
2019-02-19T14:30:19.494Z,101857.33
2019-02-19T14:33:07.462Z,101869.56
2019-02-19T14:36:00.548Z,101859.14
2019-02-19T14:38:47.768Z,101862.39
2019-02-19T14:41:36.823Z,101862.64
2019-02-19T14:44:24.092Z,101864.30
2019-02-19T14:47:12.104Z,101862.83
2019-02-19T14:50:03.599Z,101865.05
2019-02-19T14:52:57.404Z,101869.45
2019-02-19T14:55:45.549Z,101870.52
2019-02-19T14:58:36.726Z,101866.53
2019-02-19T15:01:33.735Z,101861.75
2019-02-19T15:04:33.782Z,101868.89
2019-02-19T15:07:21.847Z,101855.41
2019-02-19T15:10:08.506Z,101866.19
2019-02-19T15:12:43.534Z,101858.61
2019-02-19T15:15:29.627Z,101865.34
2019-02-19T15:18:30.035Z,101859.58
2019-02-19T15:21:33.223Z,101852.83
2019-02-19T15:24:36.905Z,101863.82
2019-02-19T15:27:21.014Z,101853.61
2019-02-19T15:30:09.813Z,101857.13
2019-02-19T15:33:00.876Z,101861.64
2019-02-19T15:35:51.687Z,101836.75
2019-02-19T15:38:38.469Z,101855.58
2019-02-19T15:41:29.370Z,101852.84
2019-02-19T15:44:26.492Z,101867.96
2019-02-19T15:47:11.624Z,101867.96
2019-02-19T15:49:58.094Z,101856.03
2019-02-19T15:52:54.908Z,101866.55
2019-02-19T15:55:34.215Z,101858.43
2019-02-19T15:58:15.532Z,101847.36
2019-02-19T16:00:46.874Z,101854.41
2019-02-19T16:03:26.237Z,101856.49
2019-02-19T16:06:26.347Z,101859.16
2019-02-19T16:09:01.674Z,101856.77
2019-02-19T16:11:52.718Z,101860.74
2019-02-19T16:14:38.635Z,101866.36
2019-02-19T16:17:16.544Z,101863.92
2019-02-19T16:20:07.445Z,101860.02
2019-02-19T16:22:55.484Z,101860.32
2019-02-19T16:25:39.428Z,101859.92
2019-02-19T16:28:20.987Z,101863.61
2019-02-19T16:31:27.221Z,101860.78
2019-02-19T16:34:13.676Z,101859.05
2019-02-19T16:36:50.833Z,101865.34
2019-02-19T16:39:36.715Z,101866.57
2019-02-19T16:42:20.054Z,101860.09
2019-02-19T16:45:09.070Z,101862.66
2019-02-19T16:47:57.427Z,101860.44
2019-02-19T16:50:36.286Z,101862.47
2019-02-19T16:53:14.949Z,101862.30
2019-02-19T16:56:02.982Z,101862.30
2019-02-19T16:58:54.190Z,101855.62
2019-02-19T17:01:52.344Z,101853.09
2019-02-19T17:04:27.467Z,101856.81
2019-02-19T17:07:18.478Z,101866.35
2019-02-19T17:10:12.350Z,101871.64
2019-02-19T17:12:53.954Z,101868.88
2019-02-19T17:15:51.063Z,101871.56
2019-02-19T17:18:37.848Z,101868.23
2019-02-19T17:21:24.630Z,101872.39
2019-02-19T17:24:05.994Z,101870.34
2019-02-19T17:27:00.823Z,101872.88
2019-02-19T17:29:36.585Z,101881.94
2019-02-19T17:32:31.065Z,101879.82
2019-02-19T17:35:22.238Z,101878.93
2019-02-19T17:37:58.488Z,101884.28
2019-02-19T17:40:55.710Z,101880.06
2019-02-19T17:43:36.169Z,101883.34
2019-02-19T17:46:12.752Z,101886.79
2019-02-19T17:48:55.030Z,101892.61
2019-02-19T17:51:58.415Z,101893.77
2019-02-19T17:54:46.440Z,101893.61
2019-02-19T17:57:33.347Z,101896.45
2019-02-19T18:00:33.539Z,101902.38
2019-02-19T18:03:23.300Z,101899.95
2019-02-19T18:06:26.505Z,101894.14
2019-02-19T18:09:14.542Z,101904.27
2019-02-19T18:12:01.400Z,101898.78
2019-02-19T18:14:41.391Z,101909.75
2019-02-19T18:17:32.327Z,101908.78
2019-02-19T18:20:01.393Z,101916.00
2019-02-19T18:22:30.738Z,101914.13
2019-02-19T18:25:00.299Z,101914.33
2019-02-19T18:27:29.391Z,101922.98
2019-02-19T18:29:58.467Z,101919.29
2019-02-19T18:32:27.566Z,101922.93
2019-02-19T18:34:56.648Z,101922.53
2019-02-19T18:37:25.720Z,101919.11
2019-02-19T18:39:54.748Z,101923.42
2019-02-19T18:42:23.790Z,101920.56
2019-02-19T18:44:52.803Z,101923.38
2019-02-19T18:47:21.964Z,101921.77
2019-02-19T18:49:50.997Z,101921.94
2019-02-19T18:52:20.376Z,101928.63
2019-02-19T18:54:50.090Z,101923.91
2019-02-19T18:57:19.764Z,101925.27
2019-02-19T18:59:48.792Z,101923.16
2019-02-19T19:02:18.118Z,101927.30
2019-02-19T19:04:47.679Z,101928.80
2019-02-19T19:07:16.713Z,101928.23
2019-02-19T19:09:45.735Z,101922.45
2019-02-19T19:12:15.077Z,101929.21
2019-02-19T19:14:44.142Z,101933.74
2019-02-19T19:17:13.166Z,101931.35
2019-02-19T19:19:42.194Z,101937.05
2019-02-19T19:22:11.494Z,101940.55
2019-02-19T19:24:40.843Z,101934.87
2019-02-19T19:27:10.174Z,101933.53
2019-02-19T19:29:39.208Z,101935.45
2019-02-19T19:32:08.398Z,101934.12
2019-02-19T19:34:37.848Z,101930.39
2019-02-19T19:37:06.922Z,101941.54
2019-02-19T19:39:35.955Z,101935.59
2019-02-19T19:42:05.007Z,101939.71
2019-02-19T19:44:34.053Z,101942.39
2019-02-19T19:47:03.098Z,101937.06
2019-02-19T19:49:32.516Z,101945.07
2019-02-19T19:52:02.041Z,101942.98
2019-02-19T19:54:31.930Z,101943.47
2019-02-19T19:57:01.009Z,101951.13
2019-02-19T19:59:30.244Z,101949.17
2019-02-19T20:01:59.296Z,101955.37
2019-02-19T20:04:28.459Z,101948.93
2019-02-19T20:06:57.536Z,101953.30
2019-02-19T20:09:26.599Z,101955.30
2019-02-19T20:11:55.698Z,101954.09
2019-02-19T20:14:24.701Z,101954.70
2019-02-19T20:16:53.764Z,101959.93
2019-02-19T20:19:22.885Z,101954.38
2019-02-19T20:21:52.224Z,101956.55
2019-02-19T20:24:21.326Z,101954.84
2019-02-19T20:26:50.386Z,101947.59
2019-02-19T20:29:19.412Z,101948.70
2019-02-19T20:31:48.795Z,101945.20
2019-02-19T20:34:17.842Z,101954.03
2019-02-19T20:36:47.062Z,101951.15
2019-02-19T20:39:16.222Z,101954.99
2019-02-19T20:41:45.285Z,101947.27
2019-02-19T20:44:14.322Z,101946.16
2019-02-19T20:46:44.035Z,101950.53
2019-02-19T20:49:13.090Z,101945.44
2019-02-19T20:51:42.210Z,101945.70
2019-02-19T20:54:11.214Z,101948.58
2019-02-19T20:56:40.263Z,101959.52
2019-02-19T20:59:09.263Z,101961.36
2019-02-19T21:01:38.336Z,101957.83
2019-02-19T21:04:07.748Z,101957.98
2019-02-19T21:06:37.275Z,101960.02
2019-02-19T21:09:07.724Z,101967.91
2019-02-19T21:11:38.311Z,101967.04
2019-02-19T21:14:07.437Z,101972.09
2019-02-19T21:16:37.042Z,101975.14
2019-02-19T21:19:06.108Z,101971.14
2019-02-19T21:21:35.174Z,101970.88
2019-02-19T21:24:04.312Z,101964.33
2019-02-19T21:26:33.644Z,101969.05
2019-02-19T21:29:02.716Z,101969.91
2019-02-19T21:31:31.761Z,101972.19
2019-02-19T21:34:00.818Z,101967.04
2019-02-19T21:36:30.109Z,101963.77
2019-02-19T21:38:59.184Z,101973.34
2019-02-19T21:41:28.210Z,101970.55
2019-02-19T21:43:57.301Z,101965.59
2019-02-19T21:46:26.333Z,101959.50
2019-02-19T21:48:55.377Z,101959.37
2019-02-19T21:51:24.444Z,101957.43
2019-02-19T21:53:53.515Z,101955.22
2019-02-19T21:56:22.567Z,101952.94
2019-02-19T21:58:51.611Z,101961.14
2019-02-19T22:01:20.657Z,101957.64
2019-02-19T22:03:49.735Z,101955.70
2019-02-19T22:06:18.779Z,101957.48
2019-02-19T22:08:47.827Z,101957.48
2019-02-19T22:11:16.921Z,101967.40
2019-02-19T22:13:46.601Z,101953.84
2019-02-19T22:16:18.813Z,101954.80
2019-02-19T22:18:47.843Z,101952.21
2019-02-19T22:21:21.910Z,101954.14
2019-02-19T22:23:51.317Z,101956.70
2019-02-19T22:26:20.351Z,101955.60
2019-02-19T22:28:49.507Z,101956.22
2019-02-19T22:31:18.576Z,101953.67
2019-02-19T22:33:48.029Z,101959.10
2019-02-19T22:36:17.305Z,101959.10
2019-02-19T22:38:46.360Z,101954.38
2019-02-19T22:41:15.401Z,101958.38
2019-02-19T22:43:44.415Z,101962.92
2019-02-19T22:46:13.911Z,101949.55
2019-02-19T22:48:43.291Z,101952.95
2019-02-19T22:51:12.701Z,101960.79
2019-02-19T22:54:12.931Z,101960.17
2019-02-19T22:56:44.203Z,101959.57
2019-02-19T22:59:13.270Z,101966.06
2019-02-19T23:02:02.377Z,101964.55
2019-02-19T23:04:33.289Z,101972.33
2019-02-19T23:07:02.371Z,101970.68
2019-02-19T23:09:31.669Z,101972.46
2019-02-19T23:12:00.739Z,101975.81
2019-02-19T23:14:29.777Z,101979.17
2019-02-19T23:16:58.841Z,101975.25
2019-02-19T23:19:28.173Z,101972.13
2019-02-19T23:21:57.216Z,101973.19
2019-02-19T23:24:26.537Z,101969.59
2019-02-19T23:26:55.629Z,101972.73
2019-02-19T23:29:24.734Z,101970.86
2019-02-19T23:31:53.737Z,101969.23
2019-02-19T23:34:23.141Z,101974.72
2019-02-19T23:36:58.300Z,101973.59
2019-02-19T23:39:27.398Z,101968.14
2019-02-19T23:41:56.666Z,101967.98
2019-02-19T23:44:25.690Z,101964.24
2019-02-19T23:46:54.891Z,101970.43
2019-02-19T23:49:23.928Z,101969.28
2019-02-19T23:51:53.477Z,101967.22
2019-02-19T23:54:22.571Z,101969.48
2019-02-19T23:56:51.645Z,101968.29
2019-02-19T23:59:21.082Z,101964.16
